createdAt,value
2022-09-01T00:00:16.695Z,2.40
2022-09-01T00:02:50.530Z,0.98
2022-09-01T00:05:19.157Z,1.98
2022-09-01T00:07:46.618Z,1.63
2022-09-01T00:10:13.833Z,1.63
2022-09-01T00:12:41.046Z,4.32
2022-09-01T00:15:10.444Z,2.40
2022-09-01T00:17:37.936Z,4.03
2022-09-01T00:20:06.402Z,2.03
2022-09-01T00:22:33.903Z,1.70
2022-09-01T00:25:02.019Z,2.78
2022-09-01T00:27:30.962Z,2.30
2022-09-01T00:30:00.029Z,4.18
2022-09-01T00:32:28.306Z,2.08
2022-09-01T00:34:55.581Z,1.85
2022-09-01T00:37:22.677Z,3.10
2022-09-01T00:39:49.731Z,2.90
2022-09-01T00:42:16.946Z,3.17
2022-09-01T00:44:44.067Z,2.70
2022-09-01T00:47:13.652Z,2.15
2022-09-01T00:49:48.175Z,5.97
2022-09-01T00:53:13.169Z,1.58
2022-09-01T00:55:42.426Z,3.53
2022-09-01T00:58:19.435Z,2.25
2022-09-01T01:00:49.741Z,3.45
2022-09-01T01:03:16.854Z,2.22
2022-09-01T01:05:54.129Z,3.45
2022-09-01T01:08:43.300Z,2.25
2022-09-01T01:11:18.080Z,2.20
2022-09-01T01:13:55.936Z,3.20
2022-09-01T01:16:27.137Z,2.75
2022-09-01T01:18:55.275Z,3.42
2022-09-01T01:21:58.494Z,2.88
2022-09-01T01:24:34.566Z,2.35
2022-09-01T01:27:02.075Z,2.80
2022-09-01T01:29:38.000Z,1.95
2022-09-01T01:32:12.287Z,2.83
2022-09-01T01:34:42.394Z,2.03
2022-09-01T01:37:10.995Z,2.38
2022-09-01T01:39:42.882Z,4.10
2022-09-01T01:42:12.333Z,3.33
2022-09-01T01:44:40.868Z,4.82
2022-09-01T01:47:13.051Z,2.20
2022-09-01T01:49:44.738Z,4.00
2022-09-01T01:52:17.541Z,2.80
2022-09-01T01:54:46.112Z,1.73
2022-09-01T01:57:17.295Z,2.42
2022-09-01T01:59:45.653Z,2.65
2022-09-01T02:02:13.012Z,4.55
2022-09-01T02:04:40.875Z,1.20
2022-09-01T02:07:12.987Z,1.42
2022-09-01T02:09:44.079Z,2.05
2022-09-01T02:12:11.102Z,1.88
2022-09-01T02:14:42.597Z,3.90
2022-09-01T02:17:09.636Z,2.50
2022-09-01T02:19:42.172Z,2.03
2022-09-01T02:22:11.062Z,2.63
2022-09-01T02:24:39.819Z,1.40
2022-09-01T02:27:07.497Z,3.35
2022-09-01T02:29:38.602Z,3.75
2022-09-01T02:32:11.667Z,4.75
2022-09-01T02:34:40.045Z,2.05
2022-09-01T02:37:07.142Z,4.10
2022-09-01T02:39:34.182Z,4.07
2022-09-01T02:42:01.364Z,2.85
2022-09-01T02:44:31.166Z,2.45
2022-09-01T02:46:58.975Z,4.25
2022-09-01T02:49:28.623Z,3.13
2022-09-01T02:52:01.367Z,1.92
2022-09-01T02:54:31.383Z,2.85
2022-09-01T02:56:58.686Z,2.85
2022-09-01T02:59:28.967Z,5.50
2022-09-01T03:01:57.544Z,2.80
2022-09-01T03:04:27.392Z,2.88
2022-09-01T03:06:58.919Z,3.83
2022-09-01T03:09:26.263Z,3.13
2022-09-01T03:11:55.171Z,3.25
2022-09-01T03:14:24.310Z,4.10
2022-09-01T03:16:52.166Z,6.93
2022-09-01T03:19:19.553Z,2.85
2022-09-01T03:21:48.736Z,2.85
2022-09-01T03:24:18.471Z,5.50
2022-09-01T03:26:49.997Z,3.22
2022-09-01T03:29:18.446Z,3.53
2022-09-01T03:31:45.595Z,3.58
2022-09-01T03:34:12.939Z,1.75
2022-09-01T03:36:40.825Z,2.22
2022-09-01T03:39:14.594Z,1.90
2022-09-01T03:41:45.172Z,3.15
2022-09-01T03:44:16.340Z,2.35
2022-09-01T03:46:44.785Z,3.50
2022-09-01T03:49:15.358Z,6.22
2022-09-01T03:51:44.974Z,2.88
2022-09-01T03:54:12.866Z,3.53
2022-09-01T03:56:41.816Z,3.63
2022-09-01T03:59:16.706Z,2.67
2022-09-01T04:01:45.431Z,2.53
2022-09-01T04:04:14.013Z,2.78
2022-09-01T04:06:43.768Z,4.03
2022-09-01T04:09:11.680Z,3.60
2022-09-01T04:11:45.675Z,1.75
2022-09-01T04:14:13.593Z,2.15
2022-09-01T04:16:59.503Z,2.13
2022-09-01T04:19:27.558Z,1.88
2022-09-01T04:22:00.091Z,2.25
2022-09-01T04:24:31.079Z,3.65
2022-09-01T04:27:02.325Z,2.35
2022-09-01T04:29:31.991Z,2.35
2022-09-01T04:32:12.861Z,5.18
2022-09-01T04:34:41.857Z,4.47
2022-09-01T04:37:18.705Z,3.60
2022-09-01T04:39:56.943Z,2.85
2022-09-01T04:42:29.439Z,4.70
2022-09-01T04:44:57.656Z,4.50
2022-09-01T04:47:35.489Z,4.22
2022-09-01T04:50:14.160Z,1.92
2022-09-01T04:52:42.785Z,2.88
2022-09-01T04:55:17.848Z,3.53
2022-09-01T04:57:50.041Z,5.05
2022-09-01T05:00:23.617Z,4.72
2022-09-01T05:03:03.085Z,4.70
2022-09-01T05:06:00.246Z,4.18
2022-09-01T05:08:28.399Z,3.47
2022-09-01T05:10:59.703Z,2.55
2022-09-01T05:13:27.331Z,3.63
2022-09-01T05:16:12.954Z,8.15
2022-09-01T05:18:45.121Z,4.28
2022-09-01T05:21:12.628Z,3.03
2022-09-01T05:23:40.696Z,4.75
2022-09-01T05:26:26.226Z,3.15
2022-09-01T05:28:59.702Z,7.47
2022-09-01T05:31:37.715Z,4.05
2022-09-01T05:34:05.686Z,6.45
2022-09-01T05:36:33.824Z,2.80
2022-09-01T05:39:02.083Z,2.80
2022-09-01T05:41:30.716Z,8.68
2022-09-01T05:44:00.849Z,4.43
2022-09-01T05:46:28.687Z,3.53
2022-09-01T05:48:57.360Z,5.88
2022-09-01T05:51:43.768Z,3.03
2022-09-01T05:54:12.659Z,5.60
2022-09-01T05:56:44.111Z,4.75
2022-09-01T05:59:23.551Z,5.47
2022-09-01T06:01:53.371Z,4.45
2022-09-01T06:04:20.990Z,5.35
2022-09-01T06:07:07.155Z,8.45
2022-09-01T06:09:41.678Z,8.25
2022-09-01T06:12:18.448Z,9.07
2022-09-01T06:14:48.388Z,7.75
2022-09-01T06:17:24.927Z,13.85
2022-09-01T06:19:58.610Z,10.43
2022-09-01T06:22:28.566Z,9.93
2022-09-01T06:25:01.862Z,14.52
2022-09-01T06:27:30.105Z,14.60
2022-09-01T06:29:58.254Z,13.90
2022-09-01T06:32:27.069Z,19.52
2022-09-01T06:34:54.688Z,20.95
2022-09-01T06:37:25.724Z,25.58
2022-09-01T06:39:52.971Z,23.13
2022-09-01T06:42:20.260Z,23.75
2022-09-01T06:44:47.406Z,28.58
2022-09-01T06:47:15.630Z,23.90
2022-09-01T06:49:43.033Z,24.15
2022-09-01T06:52:13.319Z,20.67
2022-09-01T06:54:43.800Z,18.42
2022-09-01T06:59:58.343Z,14.75
2022-09-01T07:02:26.884Z,19.33
2022-09-01T07:04:54.963Z,17.95
2022-09-01T07:10:25.718Z,18.35
2022-09-01T07:13:08.969Z,23.00
2022-09-01T07:18:30.867Z,23.17
2022-09-01T07:21:35.773Z,20.92
2022-09-01T07:24:05.850Z,19.85
2022-09-01T07:26:36.006Z,24.15
2022-09-01T07:29:07.139Z,22.60
2022-09-01T07:31:50.143Z,23.02
2022-09-01T07:39:52.001Z,18.52
2022-09-01T07:45:27.879Z,16.00
2022-09-01T07:47:57.137Z,15.75
2022-09-01T07:50:40.424Z,22.00
2022-09-01T07:53:09.433Z,20.08
2022-09-01T07:55:41.385Z,20.63
2022-09-01T07:58:11.913Z,23.00
2022-09-01T08:00:43.273Z,21.90
2022-09-01T08:03:10.627Z,21.00
2022-09-01T08:05:38.019Z,24.40
2022-09-01T08:08:18.527Z,27.15
2022-09-01T08:10:49.034Z,35.08
2022-09-01T08:13:20.001Z,30.60
2022-09-01T08:18:50.776Z,36.90
2022-09-01T08:23:58.010Z,43.35
2022-09-01T08:26:28.116Z,46.35
2022-09-01T08:28:56.206Z,51.42
2022-09-01T08:31:26.130Z,47.10
2022-09-01T08:33:58.531Z,47.05
2022-09-01T08:36:26.281Z,58.20
2022-09-01T08:38:54.199Z,53.65
2022-09-01T08:41:46.959Z,54.47
2022-09-01T08:44:25.327Z,54.20
2022-09-01T08:47:02.040Z,59.17
2022-09-01T08:49:29.921Z,47.53
2022-09-01T08:52:38.910Z,52.50
2022-09-01T08:55:39.387Z,48.63
2022-09-01T08:58:10.058Z,45.63
2022-09-01T09:00:51.448Z,44.58
2022-09-01T09:03:42.927Z,46.58
2022-09-01T09:06:29.578Z,51.13
2022-09-01T09:09:06.459Z,46.83
2022-09-01T09:12:10.759Z,46.70
2022-09-01T09:15:17.422Z,46.83
2022-09-01T09:17:59.858Z,52.15
2022-09-01T09:20:29.141Z,46.08
2022-09-01T09:22:59.323Z,47.63
2022-09-01T09:25:29.678Z,47.15
2022-09-01T09:28:03.808Z,45.38
2022-09-01T09:30:32.474Z,43.45
2022-09-01T09:33:47.671Z,42.15
2022-09-01T09:36:25.397Z,42.50
2022-09-01T09:39:17.643Z,31.90
2022-09-01T09:42:06.389Z,32.67
2022-09-01T09:44:34.065Z,30.20
2022-09-01T09:47:01.290Z,24.30
2022-09-01T09:49:35.873Z,30.17
2022-09-01T09:52:23.958Z,22.95
2022-09-01T09:55:22.275Z,20.25
2022-09-01T09:57:52.918Z,18.38
2022-09-01T10:00:34.049Z,19.63
2022-09-01T10:03:08.895Z,25.42
2022-09-01T10:05:45.083Z,13.38
2022-09-01T10:08:37.489Z,16.30
2022-09-01T10:11:08.247Z,19.45
2022-09-01T10:13:36.845Z,16.35
2022-09-01T10:16:32.025Z,11.90
2022-09-01T10:19:01.304Z,7.90
2022-09-01T10:21:41.530Z,11.80
2022-09-01T10:24:38.900Z,13.63
2022-09-01T10:27:28.032Z,10.88
2022-09-01T10:30:21.426Z,16.20
2022-09-01T10:33:07.416Z,12.52
2022-09-01T10:35:48.529Z,10.05
2022-09-01T10:38:26.784Z,14.32
2022-09-01T10:43:46.324Z,13.40
2022-09-01T10:49:29.563Z,14.40
2022-09-01T10:52:03.205Z,11.18
2022-09-01T10:54:51.046Z,7.68
2022-09-01T10:57:42.528Z,9.73
2022-09-01T11:14:26.954Z,9.68
2022-09-01T11:17:16.370Z,11.48
2022-09-01T11:19:58.449Z,12.75
2022-09-01T11:22:46.619Z,9.82
2022-09-01T11:25:48.531Z,9.63
2022-09-01T11:28:42.062Z,7.93
2022-09-01T11:31:09.037Z,9.05
2022-09-01T11:34:13.055Z,7.90
2022-09-01T11:36:51.087Z,8.93
2022-09-01T11:39:19.142Z,8.13
2022-09-01T11:42:00.888Z,4.53
2022-09-01T11:44:43.163Z,4.32
2022-09-01T11:47:37.319Z,4.35
2022-09-01T11:50:34.697Z,3.05
2022-09-01T11:53:06.735Z,5.35
2022-09-01T11:55:43.581Z,9.02
2022-09-01T11:58:39.343Z,9.32
2022-09-01T12:01:22.280Z,12.63
2022-09-01T12:03:52.925Z,8.68
2022-09-01T12:06:29.761Z,9.73
2022-09-01T12:09:02.233Z,8.90
2022-09-01T12:11:35.284Z,6.95
2022-09-01T12:14:12.137Z,7.28
2022-09-01T12:16:42.309Z,4.78
2022-09-01T12:19:26.526Z,4.47
2022-09-01T12:22:17.203Z,6.82
2022-09-01T12:24:51.778Z,3.65
2022-09-01T12:27:20.686Z,4.72
2022-09-01T12:29:47.901Z,3.53
2022-09-01T12:32:16.720Z,6.28
2022-09-01T12:35:11.017Z,9.68
2022-09-01T12:37:44.025Z,6.75
2022-09-01T12:40:35.964Z,8.68
2022-09-01T12:43:03.152Z,6.22
2022-09-01T12:45:46.852Z,9.90
2022-09-01T12:48:35.084Z,4.35
2022-09-01T12:51:30.935Z,3.10
2022-09-01T12:54:04.517Z,5.07
2022-09-01T12:56:39.029Z,3.70
2022-09-01T12:59:25.101Z,2.13
2022-09-01T13:02:50.697Z,2.13
2022-09-01T13:05:43.002Z,3.85
2022-09-01T13:08:18.354Z,8.13
2022-09-01T13:11:14.371Z,7.68
2022-09-01T13:13:42.515Z,6.93
2022-09-01T13:16:14.010Z,6.15
2022-09-01T13:21:32.543Z,8.13
2022-09-01T13:23:59.592Z,7.15
2022-09-01T13:26:26.839Z,7.85
2022-09-01T13:28:54.020Z,7.18
2022-09-01T13:31:29.152Z,5.68
2022-09-01T13:34:21.804Z,8.23
2022-09-01T13:36:46.065Z,7.70
2022-09-01T13:39:14.035Z,7.90
2022-09-01T13:41:42.276Z,10.55
2022-09-01T13:44:10.479Z,10.10
2022-09-01T13:46:59.192Z,11.77
2022-09-01T13:52:13.278Z,8.20
2022-09-01T13:54:40.664Z,7.75
2022-09-01T13:57:07.901Z,9.35
2022-09-01T13:59:34.958Z,12.35
2022-09-01T14:02:02.080Z,8.57
2022-09-01T14:05:08.504Z,9.07
2022-09-01T14:07:36.227Z,7.90
2022-09-01T14:12:39.569Z,9.18
2022-09-01T14:15:15.564Z,9.27
2022-09-01T14:17:45.877Z,11.75
2022-09-01T14:20:18.561Z,8.88
2022-09-01T14:22:46.334Z,7.50
2022-09-01T14:25:15.224Z,9.27
2022-09-01T14:27:42.847Z,8.55
2022-09-01T14:30:19.838Z,11.10
2022-09-01T14:32:47.887Z,10.30
2022-09-01T14:35:16.970Z,7.05
2022-09-01T14:37:45.613Z,7.25
2022-09-01T14:40:16.959Z,8.57
2022-09-01T14:42:52.479Z,6.25
2022-09-01T14:45:25.457Z,4.32
2022-09-01T14:47:56.036Z,5.28
2022-09-01T14:50:24.156Z,3.92
2022-09-01T14:52:55.057Z,4.78
2022-09-01T14:55:28.308Z,5.55
2022-09-01T14:57:56.826Z,1.92
2022-09-01T15:00:25.355Z,3.33
2022-09-01T15:02:54.626Z,2.03
2022-09-01T15:05:23.154Z,7.22
2022-09-01T15:07:51.332Z,3.20
2022-09-01T15:10:24.703Z,5.07
2022-09-01T15:12:56.415Z,4.55
2022-09-01T15:15:24.407Z,4.50
2022-09-01T15:17:51.869Z,3.80
2022-09-01T15:20:37.627Z,7.25
2022-09-01T15:23:05.508Z,7.25
2022-09-01T15:25:32.674Z,7.68
2022-09-01T15:27:59.820Z,5.97
2022-09-01T15:30:28.004Z,7.78
2022-09-01T15:32:55.826Z,6.28
2022-09-01T15:35:23.447Z,5.78
2022-09-01T15:37:52.401Z,3.03
2022-09-01T15:40:20.413Z,10.70
2022-09-01T15:42:47.719Z,10.15
2022-09-01T15:45:19.260Z,5.80
2022-09-01T15:47:48.367Z,5.60
2022-09-01T15:50:21.531Z,5.70
2022-09-01T15:53:08.273Z,6.78
2022-09-01T15:55:45.125Z,4.82
2022-09-01T15:58:15.686Z,5.95
2022-09-01T16:00:44.721Z,7.88
2022-09-01T16:03:12.461Z,6.40
2022-09-01T16:05:41.340Z,6.30
2022-09-01T16:08:11.445Z,4.70
2022-09-01T16:10:40.680Z,6.05
2022-09-01T16:13:08.137Z,7.45
2022-09-01T16:15:35.444Z,7.78
2022-09-01T16:18:19.530Z,5.72
2022-09-01T16:21:25.387Z,9.45
2022-09-01T16:23:53.600Z,6.25
2022-09-01T16:26:23.783Z,19.75
2022-09-01T16:28:56.795Z,5.95
2022-09-01T16:31:32.601Z,17.40
2022-09-01T16:34:10.099Z,8.75
2022-09-01T16:37:15.720Z,10.23
2022-09-01T16:39:55.063Z,4.35
2022-09-01T16:42:38.439Z,6.97
2022-09-01T16:45:31.695Z,6.55
2022-09-01T16:48:22.118Z,6.10
2022-09-01T16:50:57.839Z,5.75
2022-09-01T16:53:44.196Z,7.53
2022-09-01T16:56:23.186Z,5.75
2022-09-01T16:59:30.861Z,5.22
2022-09-01T17:02:20.792Z,6.93
2022-09-01T17:04:58.826Z,5.53
2022-09-01T17:08:31.115Z,9.55
2022-09-01T17:11:06.330Z,6.30
2022-09-01T17:13:52.132Z,9.20
2022-09-01T17:16:37.222Z,5.63
2022-09-01T17:19:15.750Z,5.07
2022-09-01T17:21:52.916Z,9.20
2022-09-01T17:24:42.795Z,6.93
2022-09-01T17:27:26.890Z,9.40
2022-09-01T17:29:57.163Z,16.95
2022-09-01T17:33:19.412Z,16.50
2022-09-01T17:36:14.191Z,7.38
2022-09-01T17:39:02.417Z,6.45
2022-09-01T17:41:38.402Z,5.93
2022-09-01T17:44:56.648Z,8.00
2022-09-01T17:47:53.871Z,8.70
2022-09-01T17:51:03.362Z,6.75
2022-09-01T17:54:04.313Z,6.10
2022-09-01T17:56:36.043Z,6.15
2022-09-01T17:59:30.269Z,8.65
2022-09-01T18:02:32.838Z,5.35
2022-09-01T18:05:24.675Z,4.68
2022-09-01T18:08:31.270Z,5.40
2022-09-01T18:11:08.397Z,5.95
2022-09-01T18:14:00.872Z,8.20
2022-09-01T18:17:00.935Z,4.30
2022-09-01T18:19:37.544Z,6.28
2022-09-01T18:22:12.664Z,6.35
2022-09-01T18:24:54.496Z,5.50
2022-09-01T18:27:24.225Z,9.77
2022-09-01T18:29:53.202Z,6.20
2022-09-01T18:32:46.324Z,4.90
2022-09-01T18:35:47.153Z,3.88
2022-09-01T18:38:51.651Z,3.90
2022-09-01T18:42:02.961Z,4.78
2022-09-01T18:47:40.029Z,6.32
2022-09-01T18:50:14.014Z,4.72
2022-09-01T18:52:56.260Z,3.05
2022-09-01T18:55:46.275Z,3.97
2022-09-01T18:58:46.418Z,4.57
2022-09-01T19:01:26.381Z,7.70
2022-09-01T19:04:31.112Z,3.65
2022-09-01T19:07:48.363Z,8.80
2022-09-01T19:10:24.465Z,2.67
2022-09-01T19:13:13.461Z,4.95
2022-09-01T19:15:51.562Z,3.25
2022-09-01T19:18:51.471Z,4.95
2022-09-01T19:21:24.638Z,2.30
2022-09-01T19:23:59.363Z,1.73
2022-09-01T19:26:27.959Z,2.58
2022-09-01T19:29:05.665Z,4.07
2022-09-01T19:31:43.079Z,2.00
2022-09-01T19:34:28.210Z,2.67
2022-09-01T19:36:59.909Z,6.80
2022-09-01T19:39:44.590Z,4.00
2022-09-01T19:42:40.737Z,3.97
2022-09-01T19:45:27.982Z,5.43
2022-09-01T19:48:40.910Z,3.50
2022-09-01T19:51:33.623Z,3.47
2022-09-01T19:54:34.452Z,4.68
2022-09-01T19:57:28.623Z,2.28
2022-09-01T20:00:17.805Z,2.33
2022-09-01T20:03:12.634Z,4.15
2022-09-01T20:05:54.894Z,2.45
2022-09-01T20:08:47.465Z,2.92
2022-09-01T20:11:36.377Z,3.40
2022-09-01T20:14:06.015Z,4.88
2022-09-01T20:16:48.420Z,2.05
2022-09-01T20:19:44.605Z,6.65
2022-09-01T20:22:40.438Z,3.17
2022-09-01T20:25:37.383Z,4.95
2022-09-01T20:28:39.263Z,2.75
2022-09-01T20:31:18.370Z,2.75
2022-09-01T20:33:52.604Z,4.72
2022-09-01T20:36:32.842Z,2.10
2022-09-01T20:39:56.407Z,1.35
2022-09-01T20:43:19.292Z,1.98
2022-09-01T20:45:46.573Z,3.38
2022-09-01T20:48:24.620Z,2.47
2022-09-01T20:51:18.585Z,2.95
2022-09-01T20:54:29.850Z,2.95
2022-09-01T20:57:22.362Z,1.83
2022-09-01T21:00:17.298Z,2.40
2022-09-01T21:03:15.140Z,5.75
2022-09-01T21:06:35.054Z,4.65
2022-09-01T21:09:27.709Z,1.23
2022-09-01T21:12:18.237Z,1.50
2022-09-01T21:15:00.093Z,2.58
2022-09-01T21:18:08.472Z,2.15
2022-09-01T21:20:38.479Z,3.83
2022-09-01T21:26:36.484Z,3.75
2022-09-01T21:29:51.274Z,3.35
2022-09-01T21:32:19.214Z,2.40
2022-09-01T21:34:47.994Z,3.97
2022-09-01T21:37:15.223Z,2.45
2022-09-01T21:39:42.311Z,3.13
2022-09-01T21:42:12.263Z,4.88
2022-09-01T21:44:41.184Z,4.07
2022-09-01T21:47:08.504Z,5.22
2022-09-01T21:49:35.544Z,4.60
2022-09-01T21:52:03.994Z,6.47
2022-09-01T21:54:31.227Z,2.58
2022-09-01T21:56:58.253Z,2.38
2022-09-01T21:59:26.063Z,2.90
2022-09-01T22:01:53.306Z,5.40
2022-09-01T22:04:23.196Z,3.67
2022-09-01T22:06:51.714Z,1.52
2022-09-01T22:09:21.695Z,8.27
2022-09-01T22:11:51.280Z,1.52
2022-09-01T22:14:20.560Z,3.15
2022-09-01T22:16:48.981Z,3.35
2022-09-01T22:21:58.393Z,2.65
2022-09-01T22:24:25.796Z,2.85
2022-09-01T22:26:53.047Z,4.18
2022-09-01T22:29:20.277Z,3.92
2022-09-01T22:31:47.313Z,3.28
2022-09-01T22:34:14.491Z,4.10
2022-09-01T22:36:49.374Z,3.90
2022-09-01T22:39:18.490Z,4.28
2022-09-01T22:41:46.271Z,2.92
2022-09-01T22:46:56.748Z,2.63
2022-09-01T22:49:24.168Z,2.92
2022-09-01T22:51:51.417Z,2.35
2022-09-01T22:54:18.564Z,3.63
2022-09-01T22:56:45.772Z,1.75
2022-09-01T22:59:15.433Z,4.10
2022-09-01T23:01:45.868Z,3.45
2022-09-01T23:04:15.564Z,2.20
2022-09-01T23:06:47.402Z,4.28
2022-09-01T23:09:15.933Z,3.20
2022-09-01T23:11:44.907Z,4.63
2022-09-01T23:14:12.623Z,4.88
2022-09-01T23:16:39.829Z,4.65
2022-09-01T23:19:07.811Z,5.75
2022-09-01T23:21:37.905Z,4.28
2022-09-01T23:24:07.137Z,6.93
2022-09-01T23:26:35.286Z,8.43
2022-09-01T23:29:04.300Z,8.15
2022-09-01T23:31:36.107Z,8.95
2022-09-01T23:36:37.997Z,11.90
2022-09-01T23:39:06.201Z,11.98
2022-09-01T23:41:36.303Z,12.57
2022-09-01T23:44:06.325Z,15.38
2022-09-01T23:46:42.565Z,20.65
2022-09-01T23:49:11.237Z,16.48
2022-09-01T23:51:39.126Z,20.42
2022-09-01T23:54:06.806Z,19.65
2022-09-01T23:56:34.037Z,21.00
2022-09-01T23:59:01.357Z,25.35
